Time;durP1;ratioP1;P1;durP2;ratioP2;P2;SDS_P1;SDS_P2;PMS_P1;PMS_P2;Temp;Humidity;BMP_temperature;BMP_pressure;BME280_temperature;BME280_humidity;BME280_pressure;Samples;Min_cycle;Max_cycle;Signal;HPM_P1;HPM_P2
2023/02/10 00:01:07;;;;;;;;;83.25;63.50;;;;;7.81;53.65;103340.56;5041176;28;45965;-71
2023/02/10 00:03:33;;;;;;;;;83.50;66.50;;;;;7.71;54.21;103324.41;5041201;28;45332;-71
2023/02/10 00:06:00;;;;;;;;;86.75;70.00;;;;;7.75;53.93;103328.00;5040955;28;45674;-71
2023/02/10 00:08:28;;;;;;;;;83.25;63.50;;;;;7.67;54.05;103309.25;5040267;28;45443;-71
2023/02/10 00:11:02;;;;;;;;;82.50;62.50;;;;;7.76;54.55;103332.47;5040757;28;45313;-71
2023/02/10 00:13:28;;;;;;;;;87.50;67.50;;;;;7.78;54.35;103336.06;5040044;28;45525;-71
2023/02/10 00:15:54;;;;;;;;;83.00;65.75;;;;;7.72;54.05;103320.88;5040904;28;45331;-71
2023/02/10 00:18:19;;;;;;;;;82.25;63.50;;;;;7.83;54.30;103339.69;5022985;28;47433;-71
2023/02/10 00:20:45;;;;;;;;;85.25;65.50;;;;;7.76;54.45;103322.72;5022143;28;45495;-71
2023/02/10 00:23:10;;;;;;;;;87.25;68.25;;;;;7.81;54.59;103330.81;5041123;28;45435;-71
2023/02/10 00:25:36;;;;;;;;;83.75;64.75;;;;;7.84;54.78;103332.66;5039740;28;45313;-71
2023/02/10 00:28:02;;;;;;;;;85.50;66.50;;;;;7.78;54.46;103329.00;5040351;28;45507;-71
2023/02/10 00:30:28;;;;;;;;;81.25;65.75;;;;;7.77;54.70;103319.22;5040857;28;45395;-71
2023/02/10 00:32:53;;;;;;;;;88.50;69.25;;;;;7.62;54.85;103297.63;5040866;28;45399;-71
2023/02/10 00:35:18;;;;;;;;;79.00;61.25;;;;;7.81;55.05;103327.25;5040718;28;45534;-71
2023/02/10 00:37:44;;;;;;;;;83.00;63.25;;;;;7.76;54.86;103321.84;5022480;28;47133;-71
2023/02/10 00:40:10;;;;;;;;;87.75;71.25;;;;;7.79;54.96;103333.44;5040748;28;45618;-71
2023/02/10 00:42:35;;;;;;;;;80.25;63.50;;;;;7.75;55.21;103326.28;5022458;28;45372;-71
2023/02/10 00:45:01;;;;;;;;;81.50;63.50;;;;;7.75;54.82;103331.59;5018460;28;45523;-71
2023/02/10 00:47:26;;;;;;;;;88.00;65.25;;;;;7.71;55.18;103308.44;5031769;28;45515;-71
2023/02/10 00:49:52;;;;;;;;;88.25;68.75;;;;;7.80;54.90;103326.34;5022476;28;45505;-71
2023/02/10 00:52:18;;;;;;;;;88.75;68.25;;;;;7.76;55.25;103312.09;5022247;28;45404;-71
2023/02/10 00:54:43;;;;;;;;;83.75;64.25;;;;;7.71;55.18;103303.13;5039840;28;45309;-71
2023/02/10 00:57:09;;;;;;;;;87.00;69.75;;;;;7.75;55.34;103310.31;5040038;28;45361;-71
2023/02/10 00:59:34;;;;;;;;;84.50;66.00;;;;;7.81;55.32;103317.50;5040175;28;45439;-71
2023/02/10 01:01:59;;;;;;;;;83.75;65.25;;;;;7.86;55.24;103323.81;5040442;28;45306;-71
2023/02/10 01:04:25;;;;;;;;;81.50;64.25;;;;;7.82;55.31;103315.72;5040118;28;45469;-71
2023/02/10 01:06:50;;;;;;;;;83.50;65.25;;;;;7.86;55.49;103320.28;5040064;28;46731;-71
2023/02/10 01:09:17;;;;;;;;;82.00;64.50;;;;;7.84;55.59;103322.91;5039799;28;45353;-71
2023/02/10 01:11:43;;;;;;;;;82.00;64.25;;;;;7.81;55.30;103311.31;5039788;28;45451;-71
2023/02/10 01:14:08;;;;;;;;;84.25;64.50;;;;;7.83;55.12;103320.19;5038941;28;45462;-71
2023/02/10 01:16:33;;;;;;;;;82.25;64.50;;;;;7.93;55.16;103336.34;5040059;28;45462;-71
2023/02/10 01:19:00;;;;;;;;;81.25;63.75;;;;;7.87;55.21;103327.38;5039773;28;45563;-71
2023/02/10 01:21:25;;;;;;;;;85.25;65.25;;;;;7.91;55.26;103331.91;5039427;28;45387;-71
2023/02/10 01:23:51;;;;;;;;;84.25;65.75;;;;;7.79;55.73;103309.50;5039810;28;45550;-71
2023/02/10 01:26:16;;;;;;;;;85.50;65.25;;;;;7.73;55.50;103296.06;5039610;28;46518;-71
2023/02/10 01:28:42;;;;;;;;;86.25;66.00;;;;;8.00;55.60;103342.69;5021662;28;45380;-71
2023/02/10 01:31:10;;;;;;;;;86.75;69.00;;;;;7.98;55.67;103337.38;5039973;28;45397;-71
2023/02/10 01:33:36;;;;;;;;;83.25;66.75;;;;;7.87;55.96;103316.72;5039634;28;45533;-71
2023/02/10 01:36:06;;;;;;;;;85.00;66.50;;;;;7.92;55.81;103323.06;5021448;28;46939;-71
2023/02/10 01:38:32;;;;;;;;;83.25;64.00;;;;;7.98;56.31;103336.47;5039486;28;45855;-71
2023/02/10 01:40:57;;;;;;;;;86.25;66.75;;;;;7.91;56.44;103326.56;5039869;28;45371;-71
2023/02/10 01:43:22;;;;;;;;;84.50;67.00;;;;;7.90;56.58;103333.66;5038418;28;45590;-71
2023/02/10 01:45:48;;;;;;;;;84.50;68.25;;;;;7.73;57.02;103296.06;5028600;28;45630;-71
2023/02/10 01:48:14;;;;;;;;;90.25;68.25;;;;;7.87;57.18;103320.31;5037229;28;45348;-71
2023/02/10 01:50:46;;;;;;;;;84.50;66.25;;;;;7.96;57.11;103333.78;5039381;28;45368;-71
2023/02/10 01:53:13;;;;;;;;;89.25;70.50;;;;;7.85;56.90;103318.47;5020864;28;45645;-71
2023/02/10 01:55:42;;;;;;;;;82.50;64.00;;;;;7.97;56.86;103337.34;5039244;28;46632;-71
2023/02/10 01:58:13;;;;;;;;;84.00;65.00;;;;;7.87;57.38;103322.03;5038998;28;45415;-71
2023/02/10 02:00:38;;;;;;;;;85.25;70.25;;;;;7.85;57.19;103315.81;5039320;28;45488;-71
2023/02/10 02:03:05;;;;;;;;;91.00;68.75;;;;;7.86;57.24;103323.81;5039403;28;45340;-71
2023/02/10 02:05:36;;;;;;;;;90.25;73.75;;;;;8.05;57.11;103343.72;5020227;28;45567;-71
2023/02/10 02:08:07;;;;;;;;;90.50;76.00;;;;;7.98;56.49;103329.41;5039113;28;45397;-71
2023/02/10 02:10:44;;;;;;;;;98.00;90.00;;;;;7.95;56.94;103323.09;5020817;28;45439;-71
2023/02/10 02:13:23;;;;;;;;;98.50;94.00;;;;;7.89;57.08;103321.22;5038042;28;45471;-71
2023/02/10 02:16:03;;;;;;;;;102.50;87.00;;;;;7.98;57.06;103339.13;5020994;28;48192;-71
2023/02/10 02:18:34;;;;;;;;;108.25;96.00;;;;;7.92;56.92;103339.91;5021062;28;45863;-71
2023/02/10 02:21:02;;;;;;;;;97.25;84.75;;;;;8.00;57.16;103339.16;5038656;28;45349;-71
2023/02/10 02:24:01;;;;;;;;;118.00;99.25;;;;;7.99;57.12;103338.25;5038923;28;45620;-71
2023/02/10 02:26:56;;;;;;;;;107.75;91.25;;;;;8.02;57.06;103341.00;5038520;28;46179;-71
2023/02/10 02:29:33;;;;;;;;;106.50;96.75;;;;;8.03;57.20;103336.56;5039064;28;45557;-71
2023/02/10 02:32:05;;;;;;;;;109.25;90.75;;;;;8.00;57.58;103342.69;5038961;28;45501;-71
2023/02/10 02:34:50;;;;;;;;;97.00;85.75;;;;;7.98;57.53;103333.81;5038933;28;45354;-71
2023/02/10 02:37:37;;;;;;;;;94.50;82.50;;;;;7.98;57.65;103339.13;5032723;28;45424;-71
2023/02/10 02:40:03;;;;;;;;;101.25;88.00;;;;;7.91;57.99;103322.13;5037491;28;45385;-71
2023/02/10 02:42:31;;;;;;;;;110.50;99.25;;;;;8.00;58.22;103331.16;5038720;28;45372;-71
2023/02/10 02:45:09;;;;;;;;;100.50;94.25;;;;;8.01;58.11;103328.53;5017329;28;45664;-71
2023/02/10 02:48:12;;;;;;;;;101.50;93.50;;;;;8.01;57.72;103331.22;5031146;28;47352;-71
2023/02/10 02:50:59;;;;;;;;;109.00;93.00;;;;;7.97;58.05;103332.91;5029400;28;45276;-71
2023/02/10 02:53:29;;;;;;;;;97.00;84.75;;;;;7.91;58.21;103326.56;5025801;28;45436;-71
2023/02/10 02:56:15;;;;;;;;;102.75;93.00;;;;;7.85;58.22;103318.47;5038518;28;45442;-71
2023/02/10 02:59:00;;;;;;;;;100.75;88.50;;;;;7.96;58.21;103343.53;5038480;28;45423;-71
2023/02/10 03:01:49;;;;;;;;;101.00;91.25;;;;;7.74;58.22;103303.19;5020214;28;45302;-71
2023/02/10 03:04:16;;;;;;;;;86.00;65.00;;;;;7.67;58.24;103295.97;5038373;28;45555;-71
2023/02/10 03:06:42;;;;;;;;;90.25;76.25;;;;;7.93;58.27;103333.69;5037812;28;45407;-71
2023/02/10 03:09:07;;;;;;;;;84.00;68.25;;;;;8.03;58.26;103339.22;5037240;28;46186;-71
2023/02/10 03:11:33;;;;;;;;;90.00;75.00;;;;;7.99;58.39;103324.97;5037886;28;45505;-71
2023/02/10 03:13:58;;;;;;;;;85.50;65.00;;;;;8.00;58.64;103328.50;5038414;28;45526;-71
2023/02/10 03:16:23;;;;;;;;;83.50;64.50;;;;;8.04;58.43;103328.63;5020344;28;45530;-71
2023/02/10 03:18:49;;;;;;;;;82.25;63.75;;;;;7.98;58.51;103315.19;5020310;28;47181;-71
2023/02/10 03:21:14;;;;;;;;;86.50;67.25;;;;;8.05;58.83;103327.75;5020249;28;45456;-71
2023/02/10 03:23:39;;;;;;;;;84.00;63.00;;;;;7.97;58.64;103319.63;5020382;28;45336;-71
2023/02/10 03:26:05;;;;;;;;;78.25;63.00;;;;;8.08;58.57;103341.09;5038160;28;45702;-71
2023/02/10 03:28:31;;;;;;;;;80.50;62.50;;;;;8.00;58.82;103325.84;5037564;28;45500;-71
2023/02/10 03:30:56;;;;;;;;;87.25;66.75;;;;;7.91;58.93;103313.28;5020116;28;45294;-71
2023/02/10 03:33:22;;;;;;;;;84.00;66.50;;;;;8.07;58.98;103344.63;5038203;28;45611;-71
2023/02/10 03:35:49;;;;;;;;;83.00;62.50;;;;;7.92;59.15;103315.09;5036974;28;45419;-71
2023/02/10 03:38:15;;;;;;;;;81.50;63.75;;;;;8.02;59.21;103325.03;5036671;28;47247;-71
2023/02/10 03:40:41;;;;;;;;;85.50;66.25;;;;;7.92;58.75;103305.31;5037904;28;45404;-71
2023/02/10 03:43:07;;;;;;;;;81.50;63.50;;;;;8.11;58.83;103338.50;5019840;28;45538;-71
2023/02/10 03:45:32;;;;;;;;;79.25;61.50;;;;;7.93;58.74;103303.56;5011226;28;45749;-71
2023/02/10 03:47:59;;;;;;;;;81.75;63.25;;;;;8.19;58.68;103348.41;5032130;28;47521;-71
2023/02/10 03:50:25;;;;;;;;;81.50;63.50;;;;;8.02;58.91;103319.72;5038035;28;45280;-71
2023/02/10 03:52:51;;;;;;;;;84.75;64.75;;;;;8.14;58.85;103341.22;5037407;28;45428;-71
2023/02/10 03:55:19;;;;;;;;;82.50;63.25;;;;;7.99;58.27;103317.00;5009342;28;45353;-71
2023/02/10 03:57:45;;;;;;;;;84.25;63.50;;;;;7.92;58.66;103317.75;5019397;28;48101;-71
2023/02/10 04:00:11;;;;;;;;;87.75;69.50;;;;;7.90;58.51;103315.06;5019779;28;45550;-70
2023/02/10 04:02:37;;;;;;;;;87.25;69.25;;;;;7.88;58.79;103299.91;5041056;28;45390;-71
2023/02/10 04:05:02;;;;;;;;;86.75;70.50;;;;;8.11;58.55;103346.47;5040188;28;45288;-71
2023/02/10 04:07:28;;;;;;;;;83.75;65.50;;;;;7.95;58.62;103320.44;5040902;28;45457;-71
2023/02/10 04:09:53;;;;;;;;;79.50;63.00;;;;;8.05;58.70;103335.75;5022879;28;45345;-70
2023/02/10 04:12:19;;;;;;;;;84.00;64.50;;;;;8.00;58.80;103318.75;5022592;28;45791;-71
2023/02/10 04:14:44;;;;;;;;;85.75;65.75;;;;;8.20;58.66;103351.06;5023187;28;45510;-71
2023/02/10 04:17:10;;;;;;;;;83.50;63.00;;;;;8.01;58.71;103323.22;5040709;28;46383;-71
2023/02/10 04:19:35;;;;;;;;;79.50;62.25;;;;;8.15;58.69;103342.09;5022883;28;45565;-71
2023/02/10 04:22:01;;;;;;;;;90.50;64.25;;;;;7.93;58.64;103300.91;5039514;28;45435;-71
2023/02/10 04:24:26;;;;;;;;;80.50;62.75;;;;;8.24;58.64;103360.94;5040624;28;45493;-71
2023/02/10 04:26:52;;;;;;;;;86.00;64.25;;;;;8.04;58.54;103328.63;5040007;28;46338;-70
2023/02/10 04:29:17;;;;;;;;;85.50;64.50;;;;;8.04;58.91;103325.94;5040892;28;45388;-71
2023/02/10 04:31:43;;;;;;;;;83.00;63.00;;;;;8.10;58.93;103336.72;5022856;28;45522;-71
2023/02/10 04:34:08;;;;;;;;;86.25;63.25;;;;;8.15;59.06;103352.75;5022161;28;45410;-71
2023/02/10 04:36:34;;;;;;;;;84.25;65.25;;;;;7.95;58.63;103324.00;5022262;28;47133;-71
2023/02/10 04:38:59;;;;;;;;;80.75;63.75;;;;;7.96;59.17;103327.56;5040622;28;45340;-71
2023/02/10 04:41:25;;;;;;;;;75.25;59.50;;;;;8.16;59.05;103368.75;5022468;28;45518;-71
2023/02/10 04:43:51;;;;;;;;;85.50;65.00;;;;;8.16;59.17;103373.19;5040550;28;45632;-71
2023/02/10 04:46:16;;;;;;;;;75.50;58.75;;;;;8.15;58.96;103369.63;5020530;28;46439;-71
2023/02/10 04:48:42;;;;;;;;;75.25;61.25;;;;;8.03;59.13;103352.53;5022572;28;45293;-71
2023/02/10 04:51:12;;;;;;;;;77.75;61.00;;;;;8.23;58.91;103380.41;5022147;28;46403;-71
2023/02/10 04:53:39;;;;;;;;;76.75;59.00;;;;;8.01;58.75;103341.84;5005839;28;45578;-71
2023/02/10 04:56:05;;;;;;;;;73.50;58.75;;;;;8.01;58.56;103336.53;5039835;28;45622;-70
2023/02/10 04:58:31;;;;;;;;;76.75;61.25;;;;;7.91;59.18;103315.94;5022218;28;45802;-71
2023/02/10 05:00:57;;;;;;;;;74.00;58.50;;;;;8.06;58.90;103349.94;5022328;28;45492;-71
2023/02/10 05:03:23;;;;;;;;;70.00;56.00;;;;;7.91;58.82;103323.91;5022360;28;45500;-71
2023/02/10 05:05:51;;;;;;;;;67.50;54.25;;;;;8.09;58.69;103363.28;5038967;28;46352;-71
2023/02/10 05:08:19;;;;;;;;;66.75;54.00;;;;;7.90;58.98;103324.78;5039983;28;45306;-71
2023/02/10 05:10:47;;;;;;;;;73.00;57.75;;;;;7.93;58.87;103324.84;5039936;28;45464;-71
2023/02/10 05:13:13;;;;;;;;;76.00;58.75;;;;;8.01;58.62;103344.50;5039379;28;45541;-70
2023/02/10 05:15:39;;;;;;;;;76.00;58.50;;;;;8.02;58.93;103354.28;5021939;28;47017;-71
2023/02/10 05:18:04;;;;;;;;;72.25;56.50;;;;;7.97;58.57;103350.66;5040111;28;45300;-71
2023/02/10 05:20:30;;;;;;;;;73.50;57.75;;;;;8.01;58.57;103357.81;5021631;28;45230;-71
2023/02/10 05:22:55;;;;;;;;;81.50;63.00;;;;;7.94;58.68;103335.50;5021553;28;45540;-71
2023/02/10 05:25:21;;;;;;;;;72.75;58.75;;;;;8.09;58.80;103358.84;5021126;28;46939;-71
2023/02/10 05:27:47;;;;;;;;;68.75;54.00;;;;;8.09;59.21;103361.53;5039670;28;45338;-71
2023/02/10 05:30:15;;;;;;;;;71.25;58.50;;;;;8.05;59.33;103351.69;5021740;28;45578;-71
2023/02/10 05:32:42;;;;;;;;;69.25;54.50;;;;;8.04;59.19;103362.31;5039829;28;45541;-71
2023/02/10 05:35:08;;;;;;;;;69.00;54.00;;;;;8.09;58.62;103360.63;5038542;28;45492;-71
2023/02/10 05:37:34;;;;;;;;;68.25;55.25;;;;;8.07;59.01;103365.00;5039466;28;45859;-71
2023/02/10 05:39:59;;;;;;;;;74.00;56.00;;;;;8.09;58.97;103366.84;5021586;28;45375;-71
2023/02/10 05:42:25;;;;;;;;;65.00;54.00;;;;;8.12;58.87;103385.53;5039463;28;45374;-71
2023/02/10 05:44:50;;;;;;;;;70.75;55.75;;;;;7.92;58.97;103358.53;5018157;28;47144;-71
2023/02/10 05:47:16;;;;;;;;;61.50;49.75;;;;;8.07;58.92;103372.97;5011682;28;45475;-71
2023/02/10 05:49:41;;;;;;;;;69.75;54.75;;;;;8.00;58.94;103374.63;5021521;28;45348;-71
2023/02/10 05:52:07;;;;;;;;;71.00;56.25;;;;;7.85;58.61;103353.94;5021193;28;45313;-71
2023/02/10 05:54:32;;;;;;;;;64.00;51.00;;;;;7.85;58.72;103350.38;5038781;28;45823;-71
2023/02/10 05:56:58;;;;;;;;;63.75;51.00;;;;;8.17;59.21;103414.91;5039205;28;45515;-71
2023/02/10 05:59:24;;;;;;;;;64.50;53.00;;;;;8.05;58.87;103393.34;5021287;28;45373;-71
2023/02/10 06:01:49;;;;;;;;;66.50;53.75;;;;;8.05;58.73;103383.63;5021458;28;45456;-71
2023/02/10 06:04:15;;;;;;;;;64.50;52.00;;;;;8.06;58.83;103385.41;5020228;28;48093;-71
2023/02/10 06:06:41;;;;;;;;;64.75;51.00;;;;;8.07;59.07;103383.63;5021119;28;45483;-71
2023/02/10 06:09:07;;;;;;;;;65.50;53.00;;;;;8.00;59.15;103377.28;5036952;28;45461;-71
2023/02/10 06:11:35;;;;;;;;;66.50;53.25;;;;;7.99;58.73;103375.50;5038472;28;45364;-71
2023/02/10 06:14:00;;;;;;;;;65.75;51.00;;;;;7.94;58.73;103359.44;5020599;28;47915;-71
2023/02/10 06:16:26;;;;;;;;;66.25;51.25;;;;;7.98;58.81;103373.69;5038615;28;45364;-71
2023/02/10 06:18:54;;;;;;;;;68.00;53.00;;;;;7.98;59.09;103376.34;5039085;28;45421;-71
2023/02/10 06:21:22;;;;;;;;;63.00;53.25;;;;;8.20;59.04;103414.94;5038897;28;45489;-71
2023/02/10 06:23:48;;;;;;;;;64.00;52.00;;;;;7.97;59.21;103375.47;5019811;28;48291;-71
2023/02/10 06:26:14;;;;;;;;;52.50;43.50;;;;;7.94;58.87;103370.09;5020853;28;46010;-71
2023/02/10 06:28:39;;;;;;;;;58.75;48.00;;;;;7.91;59.04;103366.47;5038844;28;45375;-71
2023/02/10 06:31:07;;;;;;;;;56.75;46.50;;;;;8.18;59.05;103407.81;5038889;28;45376;-71
2023/02/10 06:33:34;;;;;;;;;58.50;46.75;;;;;8.03;58.97;103387.09;5037757;28;46417;-71
2023/02/10 06:36:02;;;;;;;;;55.50;44.00;;;;;8.14;59.16;103423.69;5020702;28;45794;-71
2023/02/10 06:38:27;;;;;;;;;55.00;47.75;;;;;8.04;59.04;103388.91;5038054;28;45467;-71
2023/02/10 06:40:53;;;;;;;;;60.50;48.25;;;;;7.88;58.91;103359.31;5019935;28;45491;-71
2023/02/10 06:43:18;;;;;;;;;58.50;47.50;;;;;8.07;59.10;103394.25;5020517;28;47154;-71
2023/02/10 06:45:44;;;;;;;;;55.75;45.50;;;;;8.05;59.19;103382.69;5027433;28;45419;-70
2023/02/10 06:48:09;;;;;;;;;56.25;45.00;;;;;8.02;59.09;103379.97;5019981;28;45416;-71
2023/02/10 06:50:35;;;;;;;;;57.50;46.00;;;;;8.06;58.99;103377.41;5020016;28;45370;-71
2023/02/10 06:53:00;;;;;;;;;54.75;43.75;;;;;8.10;58.87;103378.38;5020013;28;46984;-71
2023/02/10 06:55:26;;;;;;;;;57.00;45.75;;;;;8.13;58.73;103376.66;5038354;28;45415;-71
2023/02/10 06:57:51;;;;;;;;;56.25;43.50;;;;;8.27;58.83;103406.22;5020214;28;45417;-71
2023/02/10 07:44:45;;;;;;;;;;;;;;;;;;;;;
2023/02/10 08:15:56;;;;;;;;;40.50;36.00;;;;;8.29;57.38;103463.03;4968608;28;45574;-69
2023/02/10 08:22:38;;;;;;;;;;;;;;;;;;;;;
2023/02/10 08:25:56;;;;;;;;;;;;;;;;;;;;;
2023/02/10 08:29:00;;;;;;;;;;;;;;;;;;;;;
2023/02/10 08:31:59;;;;;;;;;48.00;43.25;;;;;8.34;57.20;103461.38;4974827;28;68885;-69
2023/02/10 08:34:58;;;;;;;;;;;;;;;;;;;;;
2023/02/10 08:37:54;;;;;;;;;;;;;;;;;;;;;
2023/02/10 08:40:39;;;;;;;;;;;;;;;;;;;;;
2023/02/10 08:43:18;;;;;;;;;;;;;;;;;;;;;
2023/02/10 08:46:20;;;;;;;;;;;;;;;;;;;;;
2023/02/10 08:49:25;;;;;;;;;;;;;;;;;;;;;
2023/02/10 08:52:24;;;;;;;;;;;;;;;;;;;;;
2023/02/10 08:54:56;;;;;;;;;65.25;47.00;;;;;8.41;57.37;103473.03;4976238;28;69402;-69
2023/02/10 09:01:09;;;;;;;;;55.00;47.00;;;;;8.61;57.35;103491.22;4967034;28;45739;-66
2023/02/10 09:19:02;;;;;;;;;55.75;44.75;;;;;8.62;56.95;103485.94;5649504;22;45444;-79
2023/02/10 09:21:28;;;;;;;;;46.25;40.25;;;;;8.53;57.29;103467.09;5002139;28;46400;-79
2023/02/10 09:23:53;;;;;;;;;59.75;48.00;;;;;8.69;57.09;103490.50;4988959;28;46345;-78
2023/02/10 09:26:19;;;;;;;;;48.00;41.50;;;;;8.79;57.00;103499.56;4984116;28;45311;-80
2023/02/10 09:28:45;;;;;;;;;53.00;44.25;;;;;8.58;57.03;103461.88;4985178;28;45323;-78
2023/02/10 09:31:12;;;;;;;;;58.00;46.00;;;;;8.83;57.11;103497.84;4986415;28;45480;-78
2023/02/10 09:33:37;;;;;;;;;44.50;39.00;;;;;8.69;56.72;103471.84;4990963;28;45356;-81
2023/02/10 09:36:05;;;;;;;;;48.50;40.25;;;;;8.85;56.97;103502.34;4994950;28;45671;-79
2023/02/10 09:38:30;;;;;;;;;53.25;42.25;;;;;8.68;56.44;103463.84;4997714;28;45427;-80
2023/02/10 09:41:14;;;;;;;;;57.00;45.00;;;;;8.93;56.53;103494.47;4979490;28;45367;-80
2023/02/10 09:43:48;;;;;;;;;54.00;41.75;;;;;8.92;56.90;103500.69;4982839;28;45765;-80
2023/02/10 09:46:32;;;;;;;;;49.00;39.75;;;;;8.97;56.37;103511.41;4993519;28;45741;-75
2023/02/10 09:49:13;;;;;;;;;53.50;42.50;;;;;8.87;56.51;103491.69;4996108;28;45389;-78
2023/02/10 09:51:53;;;;;;;;;42.25;39.75;;;;;8.92;56.67;103500.69;4981483;28;45541;-79
2023/02/10 09:54:19;;;;;;;;;48.50;41.25;;;;;9.01;56.49;103518.63;4988388;28;45414;-79
2023/02/10 09:56:46;;;;;;;;;55.50;43.25;;;;;8.93;56.75;103499.81;4980730;28;45684;-79
2023/02/10 09:59:19;;;;;;;;;50.00;44.00;;;;;8.93;56.69;103513.13;4995433;28;45439;-79
2023/02/10 10:01:54;;;;;;;;;54.25;44.25;;;;;8.83;56.56;103489.84;4991531;28;46852;-79
2023/02/10 10:04:22;;;;;;;;;48.75;41.25;;;;;8.74;56.57;103482.59;4987451;28;46008;-79
2023/02/10 10:06:55;;;;;;;;;53.50;42.00;;;;;8.88;56.38;103505.03;4989377;28;45422;-80
2023/02/10 10:09:27;;;;;;;;;54.25;42.50;;;;;8.93;56.53;103513.13;4983634;28;45391;-79
2023/02/10 10:11:54;;;;;;;;;42.25;39.50;;;;;8.94;56.62;103517.59;4996281;28;45466;-79
2023/02/10 10:14:25;;;;;;;;;47.50;40.75;;;;;8.93;56.54;103504.25;4996574;28;46047;-79
2023/02/10 10:16:59;;;;;;;;;48.00;41.75;;;;;8.97;56.71;103508.75;4996096;28;45489;-79
2023/02/10 10:19:59;;;;;;;;;52.50;43.50;;;;;9.03;56.70;103525.75;4986062;28;45217;-79
2023/02/10 10:22:42;;;;;;;;;45.00;38.25;;;;;9.08;56.64;103515.19;4987195;28;45328;-78
2023/02/10 10:25:33;;;;;;;;;50.25;42.00;;;;;9.15;56.64;103521.53;4987840;28;45747;-82
2023/02/10 10:28:17;;;;;;;;;43.75;39.00;;;;;9.20;56.86;103518.06;4986344;28;46180;-81
2023/02/10 10:30:45;;;;;;;;;43.25;38.50;;;;;9.08;56.73;103493.88;4992261;28;45691;-81
2023/02/10 10:33:22;;;;;;;;;40.00;35.50;;;;;9.20;56.59;103515.38;4993856;28;45273;-79
2023/02/10 10:35:48;;;;;;;;;48.50;39.25;;;;;9.23;56.63;103518.13;4991416;28;45539;-79
2023/02/10 10:38:21;;;;;;;;;40.50;37.75;;;;;9.26;56.39;103520.84;4989551;28;46087;-78
2023/02/10 10:40:48;;;;;;;;;44.75;38.50;;;;;9.22;56.73;103519.00;4996374;28;45746;-79
2023/02/10 10:43:21;;;;;;;;;40.50;36.00;;;;;9.23;56.20;103525.22;4988601;28;45309;-79
2023/02/10 10:45:52;;;;;;;;;50.75;40.25;;;;;9.26;56.30;103526.16;4995584;28;46124;-79
2023/02/10 10:48:26;;;;;;;;;41.00;36.25;;;;;9.28;56.43;103534.19;4993609;28;45567;-79
2023/02/10 10:50:55;;;;;;;;;39.00;34.00;;;;;9.22;56.27;103523.41;4988908;28;45397;-80
2023/02/10 10:53:35;;;;;;;;;42.50;36.50;;;;;9.36;56.29;103537.00;4988122;28;45405;-79
2023/02/10 10:56:03;;;;;;;;;47.50;36.75;;;;;9.38;56.61;103528.16;4981295;28;48627;-79
2023/02/10 10:58:37;;;;;;;;;38.25;36.00;;;;;9.42;56.39;103523.75;4990955;28;45791;-80
2023/02/10 11:01:05;;;;;;;;;37.75;34.25;;;;;9.48;56.24;103523.88;4984227;28;45544;-80
2023/02/10 11:03:31;;;;;;;;;42.50;35.75;;;;;9.44;56.54;103514.94;4995165;28;45544;-78
2023/02/10 11:06:17;;;;;;;;;36.75;34.75;;;;;9.51;56.29;103515.94;4983503;28;46140;-79
2023/02/10 11:08:53;;;;;;;;;31.50;29.25;;;;;9.54;56.17;103516.00;4995078;28;45963;-78
2023/02/10 11:11:19;;;;;;;;;35.25;29.75;;;;;9.57;56.27;103500.03;4980447;28;45324;-78
2023/02/10 11:13:55;;;;;;;;;34.50;27.50;;;;;9.60;56.09;103515.19;4995386;28;45621;-78
2023/02/10 11:16:21;;;;;;;;;28.75;27.50;;;;;9.62;56.55;103498.34;4996895;28;45401;-79
2023/02/10 11:19:05;;;;;;;;;37.75;31.75;;;;;9.65;56.14;103494.81;4992639;28;45826;-78
2023/02/10 11:21:40;;;;;;;;;35.00;30.75;;;;;9.71;56.66;103491.34;5008310;28;45442;-79
2023/02/10 11:24:24;;;;;;;;;37.25;32.25;;;;;9.74;56.27;103492.31;4978946;28;45484;-78
2023/02/10 11:27:15;;;;;;;;;36.50;32.50;;;;;9.79;56.74;103487.03;4987439;28;45635;-78
2023/02/10 11:29:49;;;;;;;;;33.50;32.00;;;;;9.82;56.45;103485.31;4978720;28;45317;-80
2023/02/10 11:32:22;;;;;;;;;40.25;34.25;;;;;9.78;56.44;103469.22;4979773;28;45343;-80
2023/02/10 11:34:52;;;;;;;;;31.50;27.75;;;;;9.72;56.09;103446.03;4984229;28;45277;-80
2023/02/10 11:37:28;;;;;;;;;26.75;25.75;;;;;9.96;56.38;103482.84;4987747;28;49141;-80
2023/02/10 11:39:56;;;;;;;;;36.00;31.75;;;;;9.78;56.37;103445.22;4995958;28;45271;-80
2023/02/10 11:42:28;;;;;;;;;38.50;34.50;;;;;9.94;56.59;103465.00;4994438;28;45431;-79
2023/02/10 11:45:01;;;;;;;;;35.00;33.75;;;;;10.06;56.48;103482.97;4993559;28;45881;-81
2023/02/10 11:47:30;;;;;;;;;38.75;33.50;;;;;9.98;56.55;103462.38;4990866;28;45589;-80
2023/02/10 11:49:55;;;;;;;;;35.25;33.75;;;;;10.02;56.93;103464.25;4987513;28;45389;-79
2023/02/10 11:52:23;;;;;;;;;29.00;27.25;;;;;10.12;56.38;103469.69;4990614;28;45869;-79
2023/02/10 11:54:51;;;;;;;;;31.25;28.25;;;;;9.97;56.82;103444.59;4998742;28;45402;-79
2023/02/10 12:00:23;;;;;;;;;30.50;28.75;;;;;10.29;56.85;103481.50;4980736;28;45214;-80
2023/02/10 12:03:10;;;;;;;;;28.50;25.75;;;;;10.34;56.88;103471.81;5014025;28;45388;-80
2023/02/10 12:05:50;;;;;;;;;32.00;28.50;;;;;10.35;57.11;103468.22;4991292;28;45501;-80
2023/02/10 12:08:34;;;;;;;;;33.50;30.00;;;;;10.41;57.25;103479.88;4990098;28;45480;-80
2023/02/10 12:11:14;;;;;;;;;38.75;34.00;;;;;10.44;57.21;103482.56;4981486;28;45329;-80
2023/02/10 12:13:53;;;;;;;;;32.75;28.50;;;;;10.46;57.10;103479.06;4979779;28;45389;-80
2023/02/10 12:16:29;;;;;;;;;31.75;28.00;;;;;10.34;57.49;103446.84;4988204;28;45436;-79
2023/02/10 12:19:13;;;;;;;;;31.25;28.50;;;;;10.50;57.80;103474.66;4988540;28;45262;-80
2023/02/10 12:21:55;;;;;;;;;30.75;27.75;;;;;10.51;57.55;103471.09;4997966;28;45433;-80
2023/02/10 12:24:55;;;;;;;;;29.00;23.25;;;;;10.50;57.35;103463.97;4999544;28;45448;-80
2023/02/10 12:27:20;;;;;;;;;27.50;26.50;;;;;10.55;57.34;103462.25;4995433;28;45280;-80
2023/02/10 12:29:45;;;;;;;;;29.00;28.75;;;;;10.56;57.37;103464.03;4998870;28;48187;-79
2023/02/10 12:32:42;;;;;;;;;33.50;28.75;;;;;10.49;57.62;103449.72;4988160;28;45333;-80
2023/02/10 12:35:16;;;;;;;;;29.00;25.25;;;;;10.64;57.53;103461.44;4979800;28;45525;-79
2023/02/10 12:38:04;;;;;;;;;34.25;31.00;;;;;10.67;57.67;103462.34;4986264;28;46650;-79
2023/02/10 12:40:39;;;;;;;;;29.75;25.75;;;;;10.69;58.05;103467.72;4995513;28;47095;-79
2023/02/10 12:43:34;;;;;;;;;26.75;23.25;;;;;10.68;58.42;103460.59;4980278;28;45375;-80
2023/02/10 12:46:08;;;;;;;;;29.75;26.75;;;;;10.63;58.23;103444.53;4990582;28;45419;-80
2023/02/10 12:49:03;;;;;;;;;29.25;27.75;;;;;10.76;58.35;103461.59;4986558;28;45371;-79
2023/02/10 12:51:56;;;;;;;;;32.75;26.75;;;;;10.79;58.47;103460.72;4986905;28;45313;-79
2023/02/10 12:54:30;;;;;;;;;31.25;28.00;;;;;10.69;58.21;103422.31;4987886;28;45773;-79
2023/02/10 12:57:04;;;;;;;;;33.25;30.25;;;;;10.65;58.14;103421.38;4994508;28;45386;-79
2023/02/10 12:59:47;;;;;;;;;31.50;30.50;;;;;10.85;57.87;103450.09;4985730;28;45490;-79
2023/02/10 13:02:25;;;;;;;;;27.50;25.00;;;;;10.88;58.15;103451.00;4994897;28;47230;-79
2023/02/10 13:04:56;;;;;;;;;31.75;30.00;;;;;10.88;57.98;103443.00;4993097;28;45451;-79
2023/02/10 13:07:40;;;;;;;;;32.25;28.00;;;;;10.87;57.85;103445.66;4983138;28;45402;-78
2023/02/10 13:10:17;;;;;;;;;31.00;31.00;;;;;10.87;58.03;103438.50;5007792;28;45530;-79
2023/02/10 13:12:45;;;;;;;;;35.00;29.25;;;;;10.87;58.10;103433.16;4992710;28;47122;-79
2023/02/10 13:15:34;;;;;;;;;26.00;25.75;;;;;10.89;57.98;103436.78;4985694;28;45388;-79
2023/02/10 13:18:00;;;;;;;;;18.75;18.75;;;;;10.75;57.78;103401.88;4985641;28;45403;-80
2023/02/10 13:20:37;;;;;;;;;27.25;25.25;;;;;10.83;58.05;103418.00;4985919;28;45359;-80
2023/02/10 13:23:28;;;;;;;;;31.25;30.75;;;;;10.85;58.13;103428.72;4988618;28;45941;-81
2023/02/10 13:26:11;;;;;;;;;35.75;29.50;;;;;10.83;57.90;103426.03;4988344;28;45306;-81
2023/02/10 13:28:59;;;;;;;;;34.50;30.00;;;;;10.83;58.32;103426.03;4981220;28;45410;-80